Time;durP1;ratioP1;P1;durP2;ratioP2;P2;SDS_P1;SDS_P2;PMS_P1;PMS_P2;Temp;Humidity;BMP_temperature;BMP_pressure;BME280_temperature;BME280_humidity;BME280_pressure;Samples;Min_cycle;Max_cycle;Signal;HPM_P1;HPM_P2
2022/09/08 00:01:50;;;;;;;11.45;3.17;;;19.90;99.90;;;;;;5069547;28;25106;-73
2022/09/08 00:04:16;;;;;;;9.98;3.65;;;19.90;99.90;;;;;;5064589;28;25082;-73
2022/09/08 00:06:41;;;;;;;9.00;3.55;;;20.00;99.90;;;;;;5059993;28;25061;-72
2022/09/08 00:09:07;;;;;;;10.20;3.30;;;20.00;99.90;;;;;;5064852;28;25069;-73
2022/09/08 00:11:33;;;;;;;12.13;3.85;;;20.10;99.90;;;;;;5061238;28;25125;-72
2022/09/08 00:14:04;;;;;;;10.60;3.72;;;20.20;99.90;;;;;;5069279;28;25110;-72
2022/09/08 00:16:30;;;;;;;9.85;4.03;;;20.20;99.90;;;;;;5060707;28;25072;-73
2022/09/08 00:18:56;;;;;;;9.82;3.72;;;20.20;99.90;;;;;;5056602;28;25103;-72
2022/09/08 00:21:25;;;;;;;8.90;3.55;;;20.20;99.90;;;;;;5054624;28;25110;-73
2022/09/08 00:23:51;;;;;;;11.45;3.50;;;20.30;99.90;;;;;;5068995;28;25098;-72
2022/09/08 00:26:18;;;;;;;8.43;3.00;;;20.30;99.90;;;;;;5058720;28;25054;-72
2022/09/08 00:28:44;;;;;;;9.38;3.30;;;20.30;99.90;;;;;;5061927;28;25076;-73
2022/09/08 00:31:10;;;;;;;8.75;3.22;;;20.30;99.90;;;;;;5057106;28;25118;-72
2022/09/08 00:33:36;;;;;;;8.10;3.17;;;20.30;99.90;;;;;;5054430;28;25071;-71
2022/09/08 00:36:03;;;;;;;12.30;3.20;;;20.30;99.90;;;;;;5059986;28;25146;-71
2022/09/08 00:38:30;;;;;;;13.32;3.38;;;20.50;99.90;;;;;;5057610;28;25064;-72
2022/09/08 00:40:56;;;;;;;10.48;3.42;;;20.40;99.90;;;;;;5068885;28;25136;-74
2022/09/08 00:43:49;;;;;;;10.65;3.55;;;20.30;99.90;;;;;;5056621;28;25072;-73
2022/09/08 00:46:23;;;;;;;11.63;3.42;;;20.40;99.90;;;;;;5060809;28;25053;-72
2022/09/08 00:48:55;;;;;;;9.63;3.20;;;20.50;99.90;;;;;;5049142;28;25170;-72
2022/09/08 00:51:24;;;;;;;8.55;3.03;;;20.40;99.90;;;;;;5054323;28;25136;-72
2022/09/08 00:53:50;;;;;;;11.57;4.47;;;20.30;99.90;;;;;;5056010;28;25176;-72
2022/09/08 00:56:17;;;;;;;13.32;3.33;;;20.20;99.90;;;;;;5052021;28;25068;-72
2022/09/08 00:58:43;;;;;;;10.05;2.97;;;20.20;99.90;;;;;;5048836;28;25140;-72
2022/09/08 01:01:08;;;;;;;9.82;2.95;;;20.20;99.90;;;;;;5052677;28;25078;-72
2022/09/08 01:03:37;;;;;;;7.80;3.20;;;20.20;99.90;;;;;;5058659;28;25138;-72
2022/09/08 01:06:18;;;;;;;9.95;3.55;;;20.20;99.90;;;;;;5055688;28;25131;-73
2022/09/08 01:14:46;;;;;;;6.95;2.65;;;20.20;99.90;;;;;;5056636;28;25071;-73
2022/09/08 01:17:20;;;;;;;12.48;3.70;;;20.20;99.90;;;;;;5050398;28;25105;-72
2022/09/08 01:19:47;;;;;;;6.45;2.63;;;20.10;99.90;;;;;;5052343;28;25056;-72
2022/09/08 01:22:39;;;;;;;10.20;3.53;;;20.20;99.90;;;;;;5058008;28;25070;-72
2022/09/08 01:25:17;;;;;;;12.15;3.13;;;20.10;99.90;;;;;;5053769;28;25068;-72
2022/09/08 01:27:47;;;;;;;7.43;2.40;;;20.00;99.90;;;;;;5045160;28;25052;-72
2022/09/08 01:30:12;;;;;;;6.28;2.35;;;20.00;99.90;;;;;;5056017;28;25068;-74
2022/09/08 01:32:41;;;;;;;3.70;1.90;;;20.00;99.90;;;;;;5058453;28;25059;-72
2022/09/08 01:35:08;;;;;;;5.40;1.50;;;20.00;99.90;;;;;;5057374;28;25085;-71
2022/09/08 01:37:34;;;;;;;12.68;2.55;;;20.00;99.90;;;;;;5056200;28;25073;-72
2022/09/08 01:39:59;;;;;;;3.97;1.88;;;19.80;99.90;;;;;;5056032;28;25109;-72
2022/09/08 01:42:25;;;;;;;5.45;1.63;;;19.70;99.90;;;;;;5063366;28;25143;-72
2022/09/08 01:44:50;;;;;;;6.75;2.00;;;19.70;99.90;;;;;;5056567;28;25187;-72
2022/09/08 01:47:16;;;;;;;7.00;1.27;;;19.70;99.90;;;;;;5052950;28;25053;-73
2022/09/08 01:49:42;;;;;;;3.08;1.52;;;19.50;99.90;;;;;;5058484;28;25052;-73
2022/09/08 01:52:08;;;;;;;2.78;1.40;;;19.50;99.90;;;;;;5071296;28;25072;-73
2022/09/08 01:54:34;;;;;;;6.20;1.90;;;19.60;99.90;;;;;;5062203;28;25105;-71
2022/09/08 01:57:00;;;;;;;3.88;1.40;;;19.60;99.90;;;;;;5065541;28;25150;-72
2022/09/08 01:59:25;;;;;;;7.88;2.15;;;19.70;99.90;;;;;;5064269;28;25064;-73
2022/09/08 02:01:51;;;;;;;5.93;2.03;;;19.70;99.90;;;;;;5063799;28;25133;-73
2022/09/08 02:04:17;;;;;;;5.22;1.80;;;19.70;99.90;;;;;;5059150;28;25050;-73
2022/09/08 02:06:43;;;;;;;6.90;2.63;;;19.80;99.90;;;;;;5052389;28;25169;-72
2022/09/08 02:09:09;;;;;;;6.00;2.17;;;19.90;99.90;;;;;;5068257;28;25047;-71
2022/09/08 02:11:34;;;;;;;5.75;2.03;;;19.90;99.90;;;;;;5064497;28;25196;-71
2022/09/08 02:14:00;;;;;;;6.95;2.25;;;19.90;99.90;;;;;;5057892;28;25073;-70
2022/09/08 02:16:26;;;;;;;9.05;2.17;;;19.60;99.90;;;;;;5066442;28;25064;-70
2022/09/08 02:18:55;;;;;;;9.18;2.67;;;19.30;99.90;;;;;;5049947;28;25066;-70
2022/09/08 02:21:22;;;;;;;3.83;1.98;;;19.20;99.90;;;;;;5052891;28;25105;-70
2022/09/08 02:23:49;;;;;;;6.53;2.30;;;19.30;99.90;;;;;;5057245;28;25056;-69
2022/09/08 02:26:20;;;;;;;7.40;2.00;;;19.20;99.90;;;;;;5061112;28;25174;-70
2022/09/08 02:28:47;;;;;;;3.80;2.17;;;19.20;99.90;;;;;;5061869;28;25142;-70
2022/09/08 02:31:13;;;;;;;4.68;1.70;;;19.10;99.90;;;;;;5063872;28;25102;-69
2022/09/08 02:33:40;;;;;;;10.20;1.90;;;19.00;99.90;;;;;;5060141;28;25077;-68
2022/09/08 02:36:06;;;;;;;5.35;1.90;;;18.90;99.90;;;;;;5065436;28;25059;-71
2022/09/08 02:38:32;;;;;;;7.20;1.90;;;18.80;99.90;;;;;;5054174;28;25136;-69
2022/09/08 02:40:59;;;;;;;3.47;1.83;;;18.90;99.90;;;;;;5063929;28;25059;-71
2022/09/08 02:43:25;;;;;;;9.65;2.83;;;19.10;99.90;;;;;;5067075;28;25081;-70
2022/09/08 02:45:51;;;;;;;4.10;1.77;;;19.00;99.90;;;;;;5066755;28;25163;-68
2022/09/08 02:48:17;;;;;;;7.18;1.95;;;19.00;99.90;;;;;;5060940;28;25074;-71
2022/09/08 02:50:42;;;;;;;3.75;1.88;;;19.00;99.90;;;;;;5066210;28;25063;-70
2022/09/08 02:53:08;;;;;;;4.60;2.00;;;19.00;99.90;;;;;;5064702;28;25146;-70
2022/09/08 02:55:41;;;;;;;6.88;2.22;;;19.10;99.90;;;;;;5058411;28;25095;-70
2022/09/08 02:58:08;;;;;;;5.35;1.60;;;19.00;99.90;;;;;;5074905;28;25057;-70
2022/09/08 03:00:36;;;;;;;3.45;1.70;;;19.00;99.90;;;;;;5055646;28;25063;-70
2022/09/08 03:03:03;;;;;;;4.55;2.40;;;18.90;99.90;;;;;;5065139;28;25078;-70
2022/09/08 03:05:30;;;;;;;4.55;1.95;;;18.80;99.90;;;;;;5057748;28;25076;-70
2022/09/08 03:07:56;;;;;;;5.63;2.38;;;18.70;99.90;;;;;;5060875;28;25084;-70
2022/09/08 03:10:23;;;;;;;3.53;1.80;;;18.70;99.90;;;;;;5052733;28;25080;-70
2022/09/08 03:12:53;;;;;;;3.38;1.73;;;18.70;99.90;;;;;;5051240;28;25131;-70
2022/09/08 03:15:20;;;;;;;5.45;1.90;;;18.70;99.90;;;;;;5061368;28;25076;-69
2022/09/08 03:17:46;;;;;;;6.45;1.40;;;18.60;99.90;;;;;;5064831;28;25079;-70
2022/09/08 03:20:12;;;;;;;3.17;1.88;;;18.70;99.90;;;;;;5058835;28;25113;-71
2022/09/08 03:22:38;;;;;;;4.28;1.98;;;18.80;99.90;;;;;;5063253;28;25160;-72
2022/09/08 03:25:04;;;;;;;4.25;1.83;;;18.80;99.90;;;;;;5058286;28;25117;-70
2022/09/08 03:27:30;;;;;;;4.40;2.05;;;18.70;99.90;;;;;;5055704;28;25066;-70
2022/09/08 03:29:55;;;;;;;4.55;1.83;;;18.80;99.90;;;;;;5053934;28;25076;-69
2022/09/08 03:32:21;;;;;;;8.52;2.00;;;18.80;99.90;;;;;;5055406;28;25163;-70
2022/09/08 03:34:47;;;;;;;5.18;1.90;;;18.70;99.90;;;;;;5064604;28;25150;-70
2022/09/08 03:37:14;;;;;;;3.08;1.50;;;18.60;99.90;;;;;;5065836;28;25440;-70
2022/09/08 03:39:39;;;;;;;2.55;1.50;;;18.60;99.90;;;;;;5063117;28;25060;-71
2022/09/08 03:42:05;;;;;;;3.33;1.77;;;18.70;99.90;;;;;;5056034;28;25082;-71
2022/09/08 03:44:32;;;;;;;4.82;2.13;;;18.70;99.90;;;;;;5059037;28;25081;-71
2022/09/08 03:46:58;;;;;;;5.32;2.13;;;18.70;99.90;;;;;;5054597;28;25048;-67
2022/09/08 03:49:24;;;;;;;7.30;2.05;;;18.80;99.90;;;;;;5059149;28;25098;-69
2022/09/08 03:51:49;;;;;;;4.72;1.95;;;18.70;99.90;;;;;;5055879;28;25162;-70
2022/09/08 03:56:59;;;;;;;8.93;1.98;;;18.80;99.90;;;;;;5067677;28;25050;-73
2022/09/08 03:59:25;;;;;;;5.82;1.77;;;18.80;99.90;;;;;;5064772;28;24936;-70
2022/09/08 04:01:53;;;;;;;6.90;2.30;;;18.70;99.90;;;;;;5063544;28;25084;-70
2022/09/08 04:04:22;;;;;;;4.30;2.13;;;18.70;99.90;;;;;;5059466;28;25084;-70
2022/09/08 04:06:49;;;;;;;5.07;1.77;;;18.80;99.90;;;;;;5053743;28;24990;-72
2022/09/08 04:09:14;;;;;;;6.82;2.63;;;18.80;99.90;;;;;;5058675;28;25059;-72
2022/09/08 04:11:40;;;;;;;6.57;2.17;;;18.90;99.90;;;;;;5054841;28;25067;-71
2022/09/08 04:14:05;;;;;;;6.22;2.50;;;18.90;99.90;;;;;;5062204;28;25056;-70
2022/09/08 04:16:31;;;;;;;6.65;2.25;;;18.80;99.90;;;;;;5063982;28;25155;-70
2022/09/08 04:18:57;;;;;;;9.52;2.47;;;18.80;99.90;;;;;;5055624;28;25144;-68
2022/09/08 04:21:22;;;;;;;6.72;2.35;;;18.80;99.90;;;;;;5063924;28;25070;-71
2022/09/08 04:23:48;;;;;;;10.10;2.75;;;18.90;99.90;;;;;;5047495;28;25127;-71
2022/09/08 04:26:14;;;;;;;4.50;2.58;;;18.80;99.90;;;;;;5062454;28;25141;-72
2022/09/08 04:28:39;;;;;;;14.05;3.10;;;18.70;99.90;;;;;;5050334;28;25071;-71
2022/09/08 04:31:13;;;;;;;11.80;3.13;;;18.70;99.90;;;;;;5065887;28;25130;-71
2022/09/08 04:33:39;;;;;;;9.30;3.50;;;18.80;99.90;;;;;;5054837;28;25092;-71
2022/09/08 04:36:13;;;;;;;7.22;3.22;;;18.80;99.90;;;;;;5065703;28;25105;-72
2022/09/08 04:38:39;;;;;;;11.40;3.55;;;18.70;99.90;;;;;;5049332;28;25064;-71
2022/09/08 04:41:07;;;;;;;10.60;4.10;;;18.80;99.90;;;;;;5052139;28;25069;-70
2022/09/08 04:43:33;;;;;;;10.73;3.88;;;18.80;99.90;;;;;;5055236;28;25076;-69
2022/09/08 04:46:08;;;;;;;6.93;4.10;;;18.80;99.90;;;;;;5054339;28;25078;-69
2022/09/08 04:48:35;;;;;;;8.57;3.80;;;18.80;99.90;;;;;;5057985;28;25134;-70
2022/09/08 04:51:02;;;;;;;12.00;4.88;;;18.90;99.90;;;;;;5059055;28;25125;-70
2022/09/08 04:53:30;;;;;;;17.38;5.75;;;18.80;99.90;;;;;;5048376;28;25065;-69
2022/09/08 04:55:56;;;;;;;10.10;5.15;;;18.90;99.90;;;;;;5062314;28;25045;-68
2022/09/08 04:58:22;;;;;;;11.77;5.97;;;18.80;99.90;;;;;;5067525;28;25067;-71
2022/09/08 05:00:48;;;;;;;13.88;5.28;;;18.90;99.90;;;;;;5062964;28;25065;-69
2022/09/08 05:03:14;;;;;;;14.07;5.55;;;18.90;99.90;;;;;;5067868;28;25116;-70
2022/09/08 05:05:40;;;;;;;16.17;7.55;;;18.90;99.90;;;;;;5062489;28;25093;-71
2022/09/08 05:08:06;;;;;;;15.15;6.47;;;19.00;99.90;;;;;;5064592;28;25071;-71
2022/09/08 05:10:33;;;;;;;11.18;6.43;;;19.00;99.90;;;;;;5062507;28;25168;-69
2022/09/08 05:12:59;;;;;;;8.32;5.72;;;18.90;99.90;;;;;;5061574;28;25091;-72
2022/09/08 05:15:25;;;;;;;11.20;5.80;;;19.00;99.90;;;;;;5056982;28;25107;-71
2022/09/08 05:17:52;;;;;;;11.45;6.30;;;19.00;99.90;;;;;;5050048;28;25079;-71
2022/09/08 05:20:18;;;;;;;12.88;5.65;;;19.00;99.90;;;;;;5067088;28;25062;-71
2022/09/08 05:22:43;;;;;;;10.60;5.30;;;19.00;99.90;;;;;;5055060;28;25080;-71
2022/09/08 05:25:09;;;;;;;9.52;5.30;;;18.90;99.90;;;;;;5059546;28;25145;-70
2022/09/08 05:27:35;;;;;;;11.20;5.55;;;18.80;99.90;;;;;;5067331;28;25138;-69
2022/09/08 05:30:01;;;;;;;15.30;6.47;;;18.90;99.90;;;;;;5059054;28;25056;-71
2022/09/08 05:32:26;;;;;;;14.88;6.00;;;18.90;99.90;;;;;;5056503;28;25151;-69
2022/09/08 05:34:52;;;;;;;10.57;6.10;;;19.00;99.90;;;;;;5067370;28;25086;-69
2022/09/08 05:37:18;;;;;;;11.10;5.47;;;19.00;99.90;;;;;;5057144;28;25066;-69
2022/09/08 05:39:46;;;;;;;16.08;6.45;;;19.00;99.90;;;;;;5051471;28;25093;-70
2022/09/08 05:42:12;;;;;;;10.77;5.15;;;18.80;99.90;;;;;;5064748;28;25128;-72
2022/09/08 05:44:38;;;;;;;11.60;5.43;;;18.90;99.90;;;;;;5059777;28;25055;-72
2022/09/08 05:47:03;;;;;;;9.13;4.75;;;18.90;99.90;;;;;;5055905;28;25151;-72
2022/09/08 05:49:29;;;;;;;14.88;6.78;;;18.90;99.90;;;;;;5058094;28;25072;-71
2022/09/08 05:51:55;;;;;;;16.38;6.03;;;18.90;99.90;;;;;;5063756;28;25142;-69
2022/09/08 05:54:22;;;;;;;11.45;5.47;;;19.00;99.90;;;;;;5065881;28;25063;-70
2022/09/08 05:56:48;;;;;;;9.60;5.13;;;19.00;99.90;;;;;;5065543;28;25116;-73
2022/09/08 05:59:13;;;;;;;10.27;5.50;;;18.90;99.90;;;;;;5070328;28;25109;-70
2022/09/08 06:01:39;;;;;;;9.27;5.38;;;18.90;99.90;;;;;;5057485;28;25067;-71
2022/09/08 06:04:04;;;;;;;15.38;4.95;;;19.00;99.90;;;;;;5065275;28;25078;-70
2022/09/08 06:06:32;;;;;;;11.75;5.80;;;19.10;99.90;;;;;;5054945;28;25162;-70
2022/09/08 06:09:02;;;;;;;12.90;5.78;;;19.00;99.90;;;;;;5061946;28;25133;-69
2022/09/08 06:11:29;;;;;;;11.57;5.57;;;19.10;99.90;;;;;;5057118;28;25068;-72
2022/09/08 06:13:55;;;;;;;9.75;5.40;;;19.10;99.90;;;;;;5059996;28;25141;-71
2022/09/08 06:16:21;;;;;;;13.15;5.78;;;19.10;99.90;;;;;;5064772;28;25069;-72
2022/09/08 06:18:47;;;;;;;15.45;6.88;;;19.00;99.90;;;;;;5064302;28;25076;-71
2022/09/08 06:21:25;;;;;;;13.23;6.47;;;19.00;99.90;;;;;;5059356;28;25099;-71
2022/09/08 06:23:53;;;;;;;14.90;6.57;;;19.00;99.90;;;;;;5064740;28;25165;-70
2022/09/08 06:26:35;;;;;;;13.05;6.80;;;18.90;99.90;;;;;;5052536;28;25078;-71
2022/09/08 06:29:13;;;;;;;15.43;7.22;;;19.00;99.90;;;;;;5061192;28;25103;-70
2022/09/08 06:31:48;;;;;;;11.00;6.90;;;19.00;99.90;;;;;;5065637;28;25110;-71
2022/09/08 06:34:20;;;;;;;17.50;6.70;;;19.00;99.90;;;;;;5064508;28;25161;-69
2022/09/08 06:36:50;;;;;;;17.30;7.57;;;19.00;99.90;;;;;;5066614;28;25060;-70
2022/09/08 06:39:47;;;;;;;16.63;7.22;;;19.10;99.90;;;;;;5066813;28;25054;-71
2022/09/08 06:42:20;;;;;;;11.82;6.57;;;19.10;99.90;;;;;;5063761;28;25066;-70
2022/09/08 06:44:49;;;;;;;15.68;5.95;;;19.10;99.90;;;;;;5055260;28;25104;-70
2022/09/08 06:47:21;;;;;;;15.40;7.18;;;19.10;99.90;;;;;;5055095;28;25054;-71
2022/09/08 06:49:47;;;;;;;17.35;7.43;;;19.10;99.90;;;;;;5060451;28;25066;-72
2022/09/08 06:52:18;;;;;;;22.00;9.48;;;19.10;99.90;;;;;;5059080;28;25051;-70
2022/09/08 06:55:11;;;;;;;15.77;8.45;;;19.10;99.90;;;;;;5061718;28;25062;-71
2022/09/08 06:57:46;;;;;;;15.13;8.85;;;19.20;99.90;;;;;;5053908;28;25161;-70
2022/09/08 07:00:23;;;;;;;18.20;9.77;;;19.20;99.90;;;;;;5059194;28;25086;-69
2022/09/08 07:03:19;;;;;;;22.17;9.93;;;19.10;99.90;;;;;;5055391;28;25072;-70
2022/09/08 07:05:56;;;;;;;16.83;9.18;;;19.00;99.90;;;;;;5055896;28;25090;-70
2022/09/08 07:08:40;;;;;;;15.82;9.48;;;19.10;99.90;;;;;;5057939;28;25060;-70
2022/09/08 07:11:13;;;;;;;18.63;9.65;;;19.10;99.90;;;;;;5060004;28;25061;-70
2022/09/08 07:14:07;;;;;;;18.83;10.27;;;19.00;99.90;;;;;;5064288;28;25096;-72
2022/09/08 07:16:48;;;;;;;17.90;10.27;;;19.00;99.90;;;;;;5078628;28;25057;-72
2022/09/08 07:19:29;;;;;;;17.73;10.95;;;19.10;99.90;;;;;;5071308;28;25082;-72
2022/09/08 07:22:09;;;;;;;15.32;10.00;;;19.10;99.90;;;;;;5071096;28;25072;-71
2022/09/08 07:24:38;;;;;;;17.92;10.63;;;19.20;99.90;;;;;;5076645;28;25055;-72
2022/09/08 07:27:09;;;;;;;20.40;11.25;;;19.10;99.90;;;;;;5076585;28;25061;-70
2022/09/08 07:29:42;;;;;;;20.60;10.57;;;19.10;99.90;;;;;;5066953;28;25152;-70
2022/09/08 07:32:20;;;;;;;21.90;11.30;;;19.10;99.90;;;;;;5061789;28;25064;-71
2022/09/08 07:34:54;;;;;;;23.20;11.32;;;19.10;99.90;;;;;;5066633;28;25119;-73
2022/09/08 07:37:28;;;;;;;16.90;10.52;;;19.10;99.90;;;;;;5070288;28;25066;-71
2022/09/08 07:40:16;;;;;;;17.90;9.95;;;19.20;99.90;;;;;;5068553;28;25058;-71
2022/09/08 07:42:42;;;;;;;20.42;9.63;;;19.20;99.90;;;;;;5070427;28;25078;-70
2022/09/08 07:45:10;;;;;;;17.02;9.77;;;19.00;99.90;;;;;;5075118;28;25066;-73
2022/09/08 07:47:49;;;;;;;14.38;9.00;;;19.10;99.90;;;;;;5073191;28;25068;-72
2022/09/08 07:50:24;;;;;;;15.10;7.93;;;19.00;99.90;;;;;;5059367;28;25071;-73
2022/09/08 07:53:10;;;;;;;13.27;7.72;;;19.10;99.90;;;;;;5052377;28;25061;-70
2022/09/08 07:55:40;;;;;;;12.38;6.55;;;19.10;99.90;;;;;;5058473;28;25067;-75
2022/09/08 07:58:29;;;;;;;15.20;6.82;;;19.30;99.90;;;;;;5060815;28;25065;-71
2022/09/08 08:01:19;;;;;;;12.15;6.70;;;19.30;99.90;;;;;;5052170;28;25055;-74
2022/09/08 08:04:14;;;;;;;11.95;6.70;;;19.30;99.90;;;;;;5063279;28;25051;-71
2022/09/08 08:06:52;;;;;;;13.45;6.25;;;19.00;99.90;;;;;;5059248;28;25061;-71
2022/09/08 08:09:48;;;;;;;11.68;7.22;;;19.00;99.90;;;;;;5060925;28;25081;-72
2022/09/08 08:12:38;;;;;;;8.60;6.03;;;19.20;99.90;;;;;;5067535;28;25107;-72
2022/09/08 08:15:22;;;;;;;9.50;6.18;;;19.40;99.90;;;;;;5071166;28;25056;-72
2022/09/08 08:18:06;;;;;;;7.55;5.60;;;19.50;99.90;;;;;;5068907;28;25064;-71
2022/09/08 08:21:02;;;;;;;8.00;5.03;;;19.10;99.90;;;;;;5064918;28;25068;-72
2022/09/08 08:23:35;;;;;;;12.27;5.68;;;19.10;99.90;;;;;;5055838;28;25065;-72
2022/09/08 08:26:19;;;;;;;7.20;5.30;;;19.00;99.90;;;;;;5069183;28;25060;-73
2022/09/08 08:28:46;;;;;;;9.85;5.30;;;18.80;99.90;;;;;;5060322;28;25055;-71
2022/09/08 08:31:21;;;;;;;14.35;7.97;;;18.50;99.90;;;;;;5058424;28;25130;-75
2022/09/08 08:33:51;;;;;;;14.90;8.70;;;18.50;99.90;;;;;;5063299;28;25064;-71
2022/09/08 08:36:21;;;;;;;17.73;8.23;;;18.20;99.90;;;;;;5060288;28;25059;-74
2022/09/08 08:38:52;;;;;;;13.15;7.13;;;18.20;99.90;;;;;;5052671;28;25107;-73
2022/09/08 08:41:58;;;;;;;14.43;7.90;;;18.20;99.90;;;;;;5061510;28;25063;-72
2022/09/08 08:44:47;;;;;;;11.93;5.60;;;18.40;99.90;;;;;;5035653;28;25056;-71
2022/09/08 08:47:18;;;;;;;5.75;3.13;;;19.10;99.90;;;;;;5050992;28;25140;-73
2022/09/08 08:50:12;;;;;;;10.32;3.42;;;19.60;99.90;;;;;;5048184;28;25089;-73
2022/09/08 08:53:01;;;;;;;6.88;3.35;;;19.70;99.90;;;;;;5051765;28;25048;-73
2022/09/08 08:55:48;;;;;;;5.70;3.08;;;20.10;99.90;;;;;;5052857;28;25071;-73
2022/09/08 08:58:59;;;;;;;6.97;2.80;;;20.00;99.90;;;;;;5058857;28;25063;-73
2022/09/08 09:01:34;;;;;;;6.05;3.42;;;19.60;99.90;;;;;;5063893;28;25051;-74
2022/09/08 09:04:15;;;;;;;9.10;3.60;;;19.40;99.90;;;;;;5055412;28;25066;-72
2022/09/08 09:07:01;;;;;;;4.25;2.95;;;19.10;99.90;;;;;;5051842;28;25100;-73
2022/09/08 09:09:36;;;;;;;9.10;3.55;;;18.90;99.90;;;;;;5055002;28;25055;-74
2022/09/08 09:12:01;;;;;;;10.75;3.00;;;18.90;99.90;;;;;;5056318;28;25060;-73
2022/09/08 09:14:45;;;;;;;7.47;3.20;;;18.80;99.90;;;;;;5056495;28;25088;-74
2022/09/08 09:17:49;;;;;;;5.80;2.95;;;18.70;99.90;;;;;;5059539;28;25123;-72
2022/09/08 09:20:57;;;;;;;7.00;3.40;;;18.70;99.90;;;;;;5057155;28;25072;-74
2022/09/08 09:23:41;;;;;;;11.48;4.65;;;18.70;99.90;;;;;;5051686;28;25136;-72
2022/09/08 09:26:15;;;;;;;14.70;5.35;;;18.70;99.90;;;;;;5059614;28;25061;-73
2022/09/08 09:29:08;;;;;;;10.73;5.65;;;18.80;99.90;;;;;;5061390;28;25069;-71
2022/09/08 09:31:45;;;;;;;9.82;5.88;;;18.80;99.90;;;;;;5072441;28;25067;-72
2022/09/08 09:34:39;;;;;;;10.70;5.85;;;19.00;99.90;;;;;;5063605;28;25096;-72
2022/09/08 09:37:38;;;;;;;12.43;6.68;;;19.10;99.90;;;;;;5059824;28;25082;-72
2022/09/08 09:40:11;;;;;;;14.55;5.18;;;19.30;99.90;;;;;;5074189;28;25081;-74
2022/09/08 09:42:59;;;;;;;9.48;4.95;;;19.20;99.90;;;;;;5082420;28;25098;-72
2022/09/08 09:45:42;;;;;;;11.43;5.95;;;19.20;99.90;;;;;;5061616;28;25087;-73
2022/09/08 09:48:27;;;;;;;10.27;4.75;;;19.50;99.90;;;;;;5074966;28;25095;-74
2022/09/08 09:51:16;;;;;;;7.55;4.07;;;19.30;99.90;;;;;;5067659;28;25080;-73
2022/09/08 09:54:30;;;;;;;9.18;4.28;;;19.30;99.90;;;;;;5058825;28;25074;-73
2022/09/08 09:57:26;;;;;;;5.43;4.05;;;19.50;99.90;;;;;;5070414;28;25124;-73
2022/09/08 10:00:33;;;;;;;6.75;4.35;;;19.70;99.90;;;;;;5066221;28;25136;-73
2022/09/08 10:03:35;;;;;;;7.32;3.85;;;19.90;99.90;;;;;;5054137;28;25103;-72
2022/09/08 10:06:23;;;;;;;6.43;3.55;;;19.90;99.90;;;;;;5056394;28;25081;-72
2022/09/08 10:09:18;;;;;;;10.55;3.63;;;19.60;99.90;;;;;;5061819;28;25045;-71
2022/09/08 10:12:30;;;;;;;6.03;3.42;;;19.40;99.90;;;;;;5064351;28;25057;-73
2022/09/08 10:15:07;;;;;;;8.15;3.30;;;19.40;99.90;;;;;;5056418;28;25054;-72
2022/09/08 10:18:08;;;;;;;5.35;3.03;;;19.50;99.90;;;;;;5059586;28;25069;-72
2022/09/08 10:21:04;;;;;;;7.32;3.30;;;19.70;99.90;;;;;;5050315;28;25101;-73
2022/09/08 10:23:58;;;;;;;7.45;3.38;;;19.60;99.90;;;;;;5058834;28;25061;-72
2022/09/08 10:26:45;;;;;;;6.57;3.40;;;19.70;99.90;;;;;;5058286;28;25101;-71
2022/09/08 10:29:35;;;;;;;8.32;3.15;;;19.80;99.90;;;;;;5055667;28;25063;-71
2022/09/08 10:32:12;;;;;;;5.75;2.83;;;20.00;99.90;;;;;;5063744;28;25105;-72
2022/09/08 10:35:03;;;;;;;6.30;3.17;;;20.10;99.90;;;;;;5063253;28;25057;-71
2022/09/08 10:37:58;;;;;;;4.95;2.58;;;20.30;99.90;;;;;;5057665;28;25142;-72
2022/09/08 10:40:51;;;;;;;8.75;2.30;;;20.40;99.90;;;;;;5058921;28;25068;-72
2022/09/08 10:43:37;;;;;;;5.28;2.50;;;20.20;99.90;;;;;;5055469;28;25154;-71
2022/09/08 10:46:38;;;;;;;6.40;2.50;;;20.10;99.90;;;;;;5052363;28;25101;-70
2022/09/08 10:49:19;;;;;;;6.13;1.73;;;20.40;99.90;;;;;;5038197;28;25067;-71
2022/09/08 10:51:56;;;;;;;3.80;1.10;;;20.50;99.90;;;;;;5051824;28;25080;-73
2022/09/08 10:54:40;;;;;;;12.23;1.58;;;20.60;99.90;;;;;;5050468;28;25042;-71
2022/09/08 10:57:42;;;;;;;5.07;1.40;;;20.70;99.90;;;;;;5052350;28;25071;-73
2022/09/08 11:00:12;;;;;;;5.35;1.40;;;20.70;99.90;;;;;;5051942;28;25074;-73
2022/09/08 11:03:07;;;;;;;6.10;2.17;;;20.60;99.90;;;;;;5057699;28;25059;-74
2022/09/08 11:05:40;;;;;;;2.83;1.17;;;20.90;99.90;;;;;;5062511;28;25128;-73
2022/09/08 11:08:15;;;;;;;2.38;1.15;;;21.20;99.90;;;;;;5062277;28;25112;-72
2022/09/08 11:11:00;;;;;;;6.75;1.40;;;20.80;99.90;;;;;;5058493;28;25065;-73
2022/09/08 11:13:40;;;;;;;4.28;1.65;;;20.80;99.90;;;;;;5056396;28;25168;-72
2022/09/08 11:16:33;;;;;;;3.92;1.50;;;20.80;99.90;;;;;;5053770;28;25094;-75
2022/09/08 11:19:31;;;;;;;3.92;1.27;;;20.80;99.90;;;;;;5051660;28;25059;-74
2022/09/08 11:22:18;;;;;;;5.13;1.83;;;21.10;99.90;;;;;;5054123;28;25080;-73
2022/09/08 11:25:12;;;;;;;2.45;1.60;;;21.40;99.90;;;;;;5053152;28;25105;-73
2022/09/08 11:28:02;;;;;;;4.20;1.40;;;21.60;99.90;;;;;;5055504;28;25101;-74
2022/09/08 11:30:42;;;;;;;5.55;1.15;;;22.00;99.90;;;;;;5047456;28;25108;-71
2022/09/08 11:33:14;;;;;;;4.50;1.45;;;22.30;99.90;;;;;;5064348;28;25051;-73
2022/09/08 11:36:06;;;;;;;2.90;1.35;;;22.70;99.90;;;;;;5061997;28;25146;-74
2022/09/08 11:39:02;;;;;;;5.55;1.60;;;22.80;99.90;;;;;;5051317;28;25077;-72
2022/09/08 11:41:47;;;;;;;3.83;1.50;;;22.60;99.90;;;;;;5052663;28;25108;-73
2022/09/08 11:44:39;;;;;;;6.43;1.98;;;23.20;99.90;;;;;;5051204;28;25053;-72
2022/09/08 11:47:16;;;;;;;;;;;23.10;99.90;;;;;;5061774;28;25078;-74
2022/09/08 11:50:10;;;;;;;3.65;1.48;;;22.60;99.90;;;;;;5058765;28;24142;-74
2022/09/08 11:53:07;;;;;;;5.60;1.73;;;21.80;99.90;;;;;;5050652;28;25129;-74
2022/09/08 11:56:07;;;;;;;7.78;2.28;;;21.70;99.90;;;;;;5056002;28;25114;-75
2022/09/08 11:58:55;;;;;;;4.40;1.73;;;21.60;99.90;;;;;;5049817;28;25099;-73
2022/09/08 12:01:52;;;;;;;7.15;1.58;;;21.50;99.90;;;;;;5051017;28;25069;-75
2022/09/08 12:04:42;;;;;;;4.90;1.60;;;21.80;99.90;;;;;;5059849;28;25061;-73
2022/09/08 12:07:46;;;;;;;4.95;1.42;;;22.30;99.90;;;;;;5055590;28;25103;-73
2022/09/08 12:10:37;;;;;;;5.00;1.17;;;22.20;99.90;;;;;;5064916;28;25070;-74
2022/09/08 12:13:29;;;;;;;4.30;1.67;;;22.70;99.90;;;;;;5056656;28;25136;-75
2022/09/08 12:16:15;;;;;;;8.38;1.60;;;22.60;99.90;;;;;;5057804;28;25102;-72
2022/09/08 12:18:46;;;;;;;2.85;1.58;;;22.90;99.90;;;;;;5053959;28;25086;-73
2022/09/08 12:21:37;;;;;;;6.03;1.60;;;23.20;99.90;;;;;;5056712;28;25059;-75
2022/09/08 12:24:34;;;;;;;4.85;1.75;;;23.10;99.90;;;;;;5075798;28;25061;-74
2022/09/08 12:27:24;;;;;;;8.13;1.73;;;23.50;99.90;;;;;;5055604;28;25136;-74
2022/09/08 12:30:14;;;;;;;3.50;1.17;;;23.90;99.90;;;;;;5061015;28;25108;-72
2022/09/08 12:33:08;;;;;;;3.35;1.73;;;23.90;99.90;;;;;;5057764;28;25159;-72
2022/09/08 12:35:52;;;;;;;1.85;1.00;;;23.50;99.90;;;;;;5054670;28;25060;-74
2022/09/08 12:38:42;;;;;;;2.85;1.38;;;22.60;99.90;;;;;;5072831;28;25070;-75
2022/09/08 12:41:35;;;;;;;5.65;1.45;;;22.60;99.90;;;;;;5078674;28;25098;-73
2022/09/08 12:44:23;;;;;;;5.13;1.27;;;23.40;99.90;;;;;;5054324;28;25062;-71
2022/09/08 12:47:19;;;;;;;5.35;1.30;;;23.40;99.90;;;;;;5059051;28;25050;-73
2022/09/08 12:50:14;;;;;;;3.47;1.10;;;22.90;99.90;;;;;;5061172;28;25004;-74
2022/09/08 12:52:47;;;;;;;4.15;1.30;;;22.20;99.90;;;;;;5054853;28;25123;-73
2022/09/08 12:55:30;;;;;;;8.23;1.60;;;22.40;99.90;;;;;;5059451;28;25092;-75
2022/09/08 12:58:01;;;;;;;4.53;1.15;;;22.80;99.90;;;;;;5068227;28;25134;-73
2022/09/08 13:00:38;;;;;;;3.67;1.15;;;22.50;99.90;;;;;;5065446;28;25076;-73
2022/09/08 13:03:22;;;;;;;5.53;1.02;;;23.00;99.90;;;;;;5063089;28;25175;-73
2022/09/08 13:06:11;;;;;;;5.47;1.60;;;23.30;99.90;;;;;;5065806;28;25069;-73
2022/09/08 13:08:59;;;;;;;5.00;1.40;;;23.30;99.90;;;;;;5055406;28;25069;-74
2022/09/08 13:12:06;;;;;;;6.55;2.15;;;24.00;99.90;;;;;;5055819;28;25155;-76
2022/09/08 13:15:11;;;;;;;5.43;1.48;;;24.10;99.90;;;;;;5058181;28;25177;-76
2022/09/08 13:17:57;;;;;;;10.43;1.63;;;23.80;99.90;;;;;;5057905;28;25062;-73
2022/09/08 13:20:36;;;;;;;3.58;1.15;;;24.10;99.90;;;;;;5050598;28;25073;-73
2022/09/08 13:23:49;;;;;;;6.47;1.63;;;24.00;99.90;;;;;;5057826;28;25046;-72
2022/09/08 13:26:41;;;;;;;5.35;1.38;;;23.90;99.90;;;;;;5029421;28;25073;-75
2022/09/08 13:29:37;;;;;;;8.10;1.05;;;24.00;99.90;;;;;;5056450;28;25062;-73
2022/09/08 13:32:33;;;;;;;5.45;1.27;;;24.20;99.90;;;;;;5057297;28;25058;-76
2022/09/08 13:35:22;;;;;;;3.55;1.00;;;24.20;99.90;;;;;;5049769;28;25047;-73
2022/09/08 13:38:03;;;;;;;3.40;1.70;;;23.70;99.90;;;;;;5063976;28;25055;-74
2022/09/08 13:40:53;;;;;;;4.13;1.33;;;23.30;99.90;;;;;;5058893;28;25091;-73